Time;durP1;ratioP1;P1;durP2;ratioP2;P2;SDS_P1;SDS_P2;PMS_P1;PMS_P2;Temp;Humidity;BMP_temperature;BMP_pressure;BME280_temperature;BME280_humidity;BME280_pressure;Samples;Min_cycle;Max_cycle;Signal;HPM_P1;HPM_P2
2024/03/16 00:01:28;;;;;;;1.58;0.40;;;;;;;;;;4735729;30;20057;-81
2024/03/16 00:03:59;;;;;;;1.67;0.40;;;;;;;;;;4726904;30;20053;-81
2024/03/16 00:06:30;;;;;;;2.28;0.45;;;;;;;;;;4717863;30;20512;-84
2024/03/16 00:09:00;;;;;;;3.95;0.82;;;;;;;;;;4718381;30;20599;-84
2024/03/16 00:11:31;;;;;;;3.30;0.38;;;;;;;;;;4717739;30;20053;-81
2024/03/16 00:14:02;;;;;;;1.92;0.30;;;;;;;;;;4717986;30;20048;-83
2024/03/16 00:16:35;;;;;;;5.70;0.50;;;;;;;;;;4718195;30;20060;-82
2024/03/16 00:19:05;;;;;;;2.88;0.40;;;;;;;;;;4715808;30;20053;-84
2024/03/16 00:21:36;;;;;;;3.42;0.50;;;;;;;;;;4723858;30;20513;-83
2024/03/16 00:24:08;;;;;;;21.83;12.95;;;;;;;;;;4734854;30;20053;-82
2024/03/16 00:26:38;;;;;;;12.18;3.88;;;;;;;;;;4735134;30;20048;-83
2024/03/16 00:29:09;;;;;;;7.28;2.33;;;;;;;;;;4735384;30;20071;-82
2024/03/16 00:31:39;;;;;;;5.70;2.00;;;;;;;;;;4735095;30;20066;-82
2024/03/16 00:34:10;;;;;;;4.15;0.55;;;;;;;;;;4735240;30;20063;-82
2024/03/16 00:36:41;;;;;;;2.28;0.60;;;;;;;;;;4734951;30;20432;-81
2024/03/16 00:39:18;;;;;;;2.67;0.60;;;;;;;;;;4733451;30;20070;-82
2024/03/16 00:41:48;;;;;;;3.95;0.60;;;;;;;;;;4735260;30;20053;-83
2024/03/16 00:44:18;;;;;;;4.15;1.13;;;;;;;;;;4735794;30;20491;-82
2024/03/16 00:46:48;;;;;;;6.47;0.68;;;;;;;;;;4735817;30;20063;-83
2024/03/16 00:49:20;;;;;;;3.03;0.50;;;;;;;;;;4735386;30;20061;-82
2024/03/16 00:51:51;;;;;;;2.95;0.70;;;;;;;;;;4735109;30;20532;-82
2024/03/16 00:54:22;;;;;;;;;;;;;;;;;;4735625;30;20052;-85
2024/03/16 00:56:55;;;;;;;2.08;0.70;;;;;;;;;;4735346;30;19933;-82
2024/03/16 00:59:28;;;;;;;7.68;0.88;;;;;;;;;;4733833;30;20053;-86
2024/03/16 01:01:58;;;;;;;2.30;0.70;;;;;;;;;;4734512;30;20048;-83
2024/03/16 01:04:29;;;;;;;4.35;0.60;;;;;;;;;;4733684;30;20048;-84
2024/03/16 01:07:00;;;;;;;3.00;0.65;;;;;;;;;;4734639;30;20060;-81
2024/03/16 01:09:30;;;;;;;5.55;0.52;;;;;;;;;;4743513;30;20120;-80
2024/03/16 01:12:02;;;;;;;5.85;0.73;;;;;;;;;;4750939;30;20428;-80
2024/03/16 01:14:36;;;;;;;2.00;0.50;;;;;;;;;;4751967;30;20056;-81
2024/03/16 01:17:05;;;;;;;;;;;;;;;;;;4752638;30;20048;-82
2024/03/16 01:19:36;;;;;;;3.25;0.50;;;;;;;;;;4752053;30;19930;-83
2024/03/16 01:22:06;;;;;;;0.85;0.40;;;;;;;;;;4742008;30;20051;-85
2024/03/16 01:24:36;;;;;;;2.65;0.60;;;;;;;;;;4733855;30;20053;-80
2024/03/16 01:27:11;;;;;;;4.82;0.63;;;;;;;;;;4732558;30;20060;-81
2024/03/16 01:29:41;;;;;;;2.60;0.60;;;;;;;;;;4734447;30;20056;-84
2024/03/16 01:32:11;;;;;;;3.83;0.63;;;;;;;;;;4733811;30;20064;-81
2024/03/16 01:34:41;;;;;;;2.78;0.40;;;;;;;;;;4734226;30;20048;-83
2024/03/16 01:37:13;;;;;;;1.38;0.40;;;;;;;;;;4734214;30;20061;-81
2024/03/16 01:39:44;;;;;;;3.85;0.80;;;;;;;;;;4734113;30;20052;-81
2024/03/16 01:42:14;;;;;;;3.35;1.25;;;;;;;;;;4734247;30;20386;-81
2024/03/16 01:45:12;;;;;;;2.95;0.50;;;;;;;;;;4733931;30;20056;-81
2024/03/16 01:47:44;;;;;;;1.83;0.80;;;;;;;;;;4733966;30;20138;-82
2024/03/16 01:50:21;;;;;;;2.88;0.43;;;;;;;;;;4734160;30;20056;-85
2024/03/16 01:52:52;;;;;;;3.53;0.70;;;;;;;;;;4733273;30;20060;-82
2024/03/16 01:55:22;;;;;;;2.85;0.57;;;;;;;;;;4734226;30;20075;-81
2024/03/16 01:57:53;;;;;;;1.85;0.50;;;;;;;;;;4732154;30;20064;-83
2024/03/16 02:00:26;;;;;;;3.97;0.73;;;;;;;;;;4733632;30;20048;-83
2024/03/16 02:02:57;;;;;;;2.67;0.70;;;;;;;;;;4733600;30;20049;-84
2024/03/16 02:05:31;;;;;;;5.28;1.30;;;;;;;;;;4733470;30;20057;-82
2024/03/16 02:08:01;;;;;;;3.25;0.52;;;;;;;;;;4733668;30;20413;-86
2024/03/16 02:10:31;;;;;;;2.78;0.50;;;;;;;;;;4733453;30;20053;-83
2024/03/16 02:13:01;;;;;;;1.27;0.40;;;;;;;;;;4733039;30;20060;-84
2024/03/16 02:15:32;;;;;;;4.47;0.70;;;;;;;;;;4733580;30;20437;-86
2024/03/16 02:18:09;;;;;;;1.75;0.60;;;;;;;;;;4733451;30;20064;-84
2024/03/16 02:20:39;;;;;;;2.42;0.70;;;;;;;;;;4733701;30;20056;-82
2024/03/16 02:23:09;;;;;;;8.50;0.60;;;;;;;;;;4733100;30;20522;-86
2024/03/16 02:25:44;;;;;;;3.05;0.75;;;;;;;;;;4733846;30;20051;-83
2024/03/16 02:28:15;;;;;;;1.38;0.57;;;;;;;;;;4733110;30;20057;-85
2024/03/16 02:30:46;;;;;;;3.25;0.80;;;;;;;;;;4733620;30;20052;-84
2024/03/16 02:33:16;;;;;;;1.67;0.60;;;;;;;;;;4733472;30;20049;-85
2024/03/16 02:35:45;;;;;;;4.55;0.90;;;;;;;;;;4733455;30;20048;-81
2024/03/16 02:38:15;;;;;;;1.70;0.93;;;;;;;;;;4733700;30;20064;-81
2024/03/16 02:40:46;;;;;;;5.82;0.75;;;;;;;;;;4733682;30;20056;-83
2024/03/16 02:43:16;;;;;;;6.95;1.15;;;;;;;;;;4739167;30;20049;-80
2024/03/16 02:45:46;;;;;;;2.60;0.70;;;;;;;;;;4739633;30;20060;-84
2024/03/16 02:48:16;;;;;;;4.95;0.73;;;;;;;;;;4739260;30;20056;-82
2024/03/16 02:50:47;;;;;;;3.25;0.70;;;;;;;;;;4739957;30;20057;-82
2024/03/16 02:53:16;;;;;;;2.95;0.65;;;;;;;;;;4748593;30;20048;-81
2024/03/16 02:55:47;;;;;;;3.00;0.68;;;;;;;;;;4749224;30;20385;-81
2024/03/16 02:58:16;;;;;;;6.60;1.10;;;;;;;;;;4747050;30;20049;-80
2024/03/16 03:00:48;;;;;;;7.38;1.35;;;;;;;;;;4748462;30;20057;-80
2024/03/16 03:03:20;;;;;;;2.88;0.60;;;;;;;;;;4742337;30;20501;-82
2024/03/16 03:05:52;;;;;;;3.30;0.70;;;;;;;;;;4732704;30;20060;-83
2024/03/16 03:08:22;;;;;;;3.80;0.88;;;;;;;;;;4734146;30;20072;-81
2024/03/16 03:10:53;;;;;;;3.13;1.00;;;;;;;;;;4733777;30;20061;-89
2024/03/16 03:13:23;;;;;;;6.57;0.95;;;;;;;;;;4734473;30;20048;-85
2024/03/16 03:15:56;;;;;;;4.25;0.73;;;;;;;;;;4734678;30;20063;-82
2024/03/16 03:18:26;;;;;;;3.25;0.60;;;;;;;;;;4732898;30;20063;-83
2024/03/16 03:20:56;;;;;;;11.02;1.27;;;;;;;;;;4732968;30;20527;-82
2024/03/16 03:23:26;;;;;;;3.25;0.65;;;;;;;;;;4731827;30;20057;-83
2024/03/16 03:25:56;;;;;;;5.07;0.80;;;;;;;;;;4732969;30;20428;-81
2024/03/16 03:28:28;;;;;;;5.00;1.75;;;;;;;;;;4733228;30;20049;-80
2024/03/16 03:30:59;;;;;;;5.38;0.88;;;;;;;;;;4734114;30;20056;-79
2024/03/16 03:33:29;;;;;;;5.15;0.73;;;;;;;;;;4734143;30;20071;-80
2024/03/16 03:36:02;;;;;;;5.57;0.85;;;;;;;;;;4734297;30;20064;-80
2024/03/16 03:38:33;;;;;;;5.07;0.60;;;;;;;;;;4734470;30;20053;-80
2024/03/16 03:41:03;;;;;;;4.72;0.80;;;;;;;;;;4734400;30;20141;-80
2024/03/16 03:43:33;;;;;;;8.00;0.98;;;;;;;;;;4719195;30;20076;-80
2024/03/16 03:46:04;;;;;;;6.00;0.95;;;;;;;;;;4734240;30;20056;-83
2024/03/16 03:48:43;;;;;;;4.35;0.95;;;;;;;;;;4734179;30;20383;-79
2024/03/16 03:51:14;;;;;;;5.47;0.80;;;;;;;;;;4735114;30;20067;-82
2024/03/16 03:53:45;;;;;;;3.33;0.82;;;;;;;;;;4734756;30;20057;-81
2024/03/16 03:56:15;;;;;;;6.63;0.60;;;;;;;;;;4733592;30;20060;-79
2024/03/16 03:58:46;;;;;;;4.38;0.70;;;;;;;;;;4734400;30;20060;-80
2024/03/16 04:01:18;;;;;;;3.85;0.57;;;;;;;;;;4734810;30;20053;-81
2024/03/16 04:03:48;;;;;;;5.07;0.70;;;;;;;;;;4734308;30;20068;-79
2024/03/16 04:06:25;;;;;;;5.70;0.70;;;;;;;;;;4734327;30;20053;-82
2024/03/16 04:08:56;;;;;;;7.72;0.82;;;;;;;;;;4733942;30;20072;-83
2024/03/16 04:11:26;;;;;;;3.70;0.70;;;;;;;;;;4734410;30;20076;-83
2024/03/16 04:13:56;;;;;;;2.65;1.10;;;;;;;;;;4734397;30;20517;-79
2024/03/16 04:16:26;;;;;;;11.05;1.10;;;;;;;;;;4733929;30;20061;-79
2024/03/16 04:18:56;;;;;;;7.43;0.70;;;;;;;;;;4733547;30;20067;-81
2024/03/16 04:21:26;;;;;;;2.92;0.80;;;;;;;;;;4735699;30;20161;-82
2024/03/16 04:23:58;;;;;;;4.60;1.00;;;;;;;;;;4734306;30;20064;-80
2024/03/16 04:26:28;;;;;;;6.07;1.10;;;;;;;;;;4732975;30;20458;-79
2024/03/16 04:28:57;;;;;;;9.23;1.40;;;;;;;;;;4734589;30;20087;-80
2024/03/16 04:31:27;;;;;;;7.18;1.10;;;;;;;;;;4734295;30;20132;-84
2024/03/16 04:33:57;;;;;;;11.77;2.05;;;;;;;;;;4734362;30;20072;-81
2024/03/16 04:36:27;;;;;;;4.20;0.93;;;;;;;;;;4735064;30;20053;-85
2024/03/16 04:38:58;;;;;;;6.88;1.00;;;;;;;;;;4738138;30;20067;-80
2024/03/16 04:41:29;;;;;;;9.63;1.20;;;;;;;;;;4736956;30;20067;-82
2024/03/16 04:44:02;;;;;;;10.15;1.48;;;;;;;;;;4736675;30;20075;-84
2024/03/16 04:46:34;;;;;;;8.15;1.45;;;;;;;;;;4736149;30;20072;-80
2024/03/16 04:49:06;;;;;;;5.03;1.10;;;;;;;;;;4734708;30;20057;-84
2024/03/16 04:51:37;;;;;;;7.45;1.55;;;;;;;;;;4735630;30;20060;-79
2024/03/16 04:54:08;;;;;;;3.85;1.05;;;;;;;;;;4735090;30;20061;-85
2024/03/16 04:56:38;;;;;;;6.20;1.23;;;;;;;;;;4735530;30;20056;-85
2024/03/16 04:59:11;;;;;;;7.72;1.17;;;;;;;;;;4734429;30;20067;-82
2024/03/16 05:01:41;;;;;;;13.55;1.15;;;;;;;;;;4734862;30;20067;-84
2024/03/16 05:04:12;;;;;;;7.15;1.10;;;;;;;;;;4735588;30;20059;-81
2024/03/16 05:06:43;;;;;;;2.10;0.70;;;;;;;;;;4734457;30;20057;-81
2024/03/16 05:09:14;;;;;;;7.75;1.60;;;;;;;;;;4734331;30;20057;-81
2024/03/16 05:11:46;;;;;;;4.40;0.85;;;;;;;;;;4734889;30;20435;-84
2024/03/16 05:14:15;;;;;;;3.70;1.33;;;;;;;;;;4734693;30;20424;-84
2024/03/16 05:16:45;;;;;;;4.55;0.98;;;;;;;;;;4734421;30;20437;-82
2024/03/16 05:19:15;;;;;;;5.55;1.02;;;;;;;;;;4736561;30;20052;-81
2024/03/16 05:21:46;;;;;;;6.13;1.75;;;;;;;;;;4736287;30;20083;-81
2024/03/16 05:24:15;;;;;;;7.20;2.00;;;;;;;;;;4736435;30;20056;-87
2024/03/16 05:26:45;;;;;;;12.95;2.17;;;;;;;;;;4736952;30;20061;-81
2024/03/16 05:29:15;;;;;;;5.45;1.35;;;;;;;;;;4736116;30;20052;-81
2024/03/16 05:31:57;;;;;;;7.40;1.40;;;;;;;;;;4721269;30;20059;-83
2024/03/16 05:34:28;;;;;;;5.60;1.10;;;;;;;;;;4736176;30;20064;-81
2024/03/16 05:36:58;;;;;;;5.13;1.80;;;;;;;;;;4736422;30;20060;-81
2024/03/16 05:39:29;;;;;;;13.60;2.00;;;;;;;;;;4736186;30;20056;-86
2024/03/16 05:41:59;;;;;;;8.50;1.20;;;;;;;;;;4735989;30;20067;-82
2024/03/16 05:44:29;;;;;;;5.93;1.30;;;;;;;;;;4735366;30;20057;-82
2024/03/16 05:47:01;;;;;;;3.63;1.10;;;;;;;;;;4736378;30;20044;-81
2024/03/16 05:49:31;;;;;;;4.57;1.38;;;;;;;;;;4734954;30;20060;-82
2024/03/16 05:52:01;;;;;;;5.57;1.33;;;;;;;;;;4736110;30;20065;-79
2024/03/16 05:54:34;;;;;;;5.70;1.08;;;;;;;;;;4735722;30;20489;-81
2024/03/16 05:57:05;;;;;;;2.95;1.10;;;;;;;;;;4735735;30;20060;-85
2024/03/16 05:59:35;;;;;;;6.25;1.20;;;;;;;;;;4736236;30;20497;-83
2024/03/16 06:02:05;;;;;;;7.38;1.15;;;;;;;;;;4735977;30;20057;-84
2024/03/16 06:04:35;;;;;;;7.63;1.42;;;;;;;;;;4735812;30;20065;-83
2024/03/16 06:07:05;;;;;;;4.15;1.00;;;;;;;;;;4735731;30;20060;-80
2024/03/16 06:09:35;;;;;;;8.20;1.20;;;;;;;;;;4735674;30;20072;-79
2024/03/16 06:12:07;;;;;;;3.80;0.88;;;;;;;;;;4735620;30;20087;-80
2024/03/16 06:14:37;;;;;;;8.13;1.45;;;;;;;;;;4735897;30;20064;-83
2024/03/16 06:17:07;;;;;;;4.40;1.23;;;;;;;;;;4735448;30;20069;-80
2024/03/16 06:19:38;;;;;;;5.65;1.30;;;;;;;;;;4735941;30;20060;-83
2024/03/16 06:22:09;;;;;;;6.55;1.50;;;;;;;;;;4735723;30;20065;-80
2024/03/16 06:24:41;;;;;;;12.00;1.48;;;;;;;;;;4734890;30;20060;-80
2024/03/16 06:27:18;;;;;;;5.85;1.52;;;;;;;;;;4735455;30;20072;-84
2024/03/16 06:29:52;;;;;;;8.32;1.25;;;;;;;;;;4735421;30;20501;-81
2024/03/16 06:32:23;;;;;;;8.82;1.60;;;;;;;;;;4735318;30;20061;-81
2024/03/16 06:34:54;;;;;;;10.43;1.20;;;;;;;;;;4735199;30;20509;-80
2024/03/16 06:37:27;;;;;;;6.68;1.10;;;;;;;;;;4735805;30;20694;-81
2024/03/16 06:39:58;;;;;;;8.50;1.40;;;;;;;;;;4735447;30;20045;-80
2024/03/16 06:42:29;;;;;;;5.47;1.20;;;;;;;;;;4735211;30;20053;-80
2024/03/16 06:44:59;;;;;;;3.50;1.20;;;;;;;;;;4735019;30;20071;-81
2024/03/16 06:47:32;;;;;;;3.00;1.30;;;;;;;;;;4735031;30;20053;-83
2024/03/16 06:50:06;;;;;;;6.80;1.58;;;;;;;;;;4735077;30;20063;-83
2024/03/16 06:52:37;;;;;;;11.07;1.33;;;;;;;;;;4734732;30;20064;-81
2024/03/16 06:55:07;;;;;;;4.63;1.00;;;;;;;;;;4734655;30;20056;-84
2024/03/16 06:57:37;;;;;;;5.50;1.30;;;;;;;;;;4734901;30;20071;-81
2024/03/16 07:00:09;;;;;;;5.40;1.33;;;;;;;;;;4734936;30;20063;-84
2024/03/16 07:02:39;;;;;;;8.25;1.60;;;;;;;;;;4734638;30;20067;-81
2024/03/16 07:05:10;;;;;;;5.97;1.05;;;;;;;;;;4735479;30;20385;-81
2024/03/16 07:07:40;;;;;;;7.93;1.08;;;;;;;;;;4735315;30;20074;-82
2024/03/16 07:10:10;;;;;;;6.00;1.88;;;;;;;;;;4734267;30;20076;-81
2024/03/16 07:12:40;;;;;;;4.93;1.02;;;;;;;;;;4735044;30;20056;-83
2024/03/16 07:15:15;;;;;;;6.82;1.63;;;;;;;;;;4735339;30;20053;-80
2024/03/16 07:17:45;;;;;;;2.03;1.02;;;;;;;;;;4735480;30;20059;-81
2024/03/16 07:20:15;;;;;;;5.07;1.10;;;;;;;;;;4734494;30;20068;-84
2024/03/16 07:22:46;;;;;;;8.25;1.90;;;;;;;;;;4734743;30;20497;-81
2024/03/16 07:25:16;;;;;;;7.65;1.27;;;;;;;;;;4734864;30;20076;-80
2024/03/16 07:27:48;;;;;;;6.68;1.13;;;;;;;;;;4734729;30;20064;-81
2024/03/16 07:30:19;;;;;;;4.03;1.10;;;;;;;;;;4734547;30;20056;-87
2024/03/16 07:32:50;;;;;;;3.83;0.93;;;;;;;;;;4735482;30;20493;-81
2024/03/16 07:35:19;;;;;;;6.65;1.23;;;;;;;;;;4734711;30;20421;-84
2024/03/16 07:37:49;;;;;;;2.55;0.90;;;;;;;;;;4734363;30;20060;-81
2024/03/16 07:40:21;;;;;;;5.63;1.15;;;;;;;;;;4734521;30;20097;-84
2024/03/16 07:42:52;;;;;;;9.82;1.50;;;;;;;;;;4734621;30;20509;-83
2024/03/16 07:45:23;;;;;;;5.72;1.13;;;;;;;;;;4734560;30;20052;-83
2024/03/16 07:47:56;;;;;;;6.03;1.20;;;;;;;;;;4735081;30;20505;-87
2024/03/16 07:50:26;;;;;;;4.80;1.30;;;;;;;;;;4734054;30;20057;-81
2024/03/16 07:52:57;;;;;;;7.65;1.20;;;;;;;;;;4735062;30;20053;-80
2024/03/16 07:55:29;;;;;;;5.68;0.80;;;;;;;;;;4734714;30;20087;-83
2024/03/16 07:58:01;;;;;;;6.90;1.27;;;;;;;;;;4734287;30;20530;-82
2024/03/16 08:00:33;;;;;;;9.15;1.23;;;;;;;;;;4733233;30;20060;-81
2024/03/16 08:03:03;;;;;;;5.93;1.05;;;;;;;;;;4733207;30;20056;-83
2024/03/16 08:05:34;;;;;;;5.53;1.10;;;;;;;;;;4734339;30;20057;-83
2024/03/16 08:08:04;;;;;;;10.57;1.50;;;;;;;;;;4734572;30;20063;-80
2024/03/16 08:10:34;;;;;;;5.03;1.10;;;;;;;;;;4734250;30;20064;-79
2024/03/16 08:13:04;;;;;;;3.97;0.93;;;;;;;;;;4737132;30;20437;-80
2024/03/16 08:15:35;;;;;;;9.48;1.55;;;;;;;;;;4740931;30;20064;-82
2024/03/16 08:18:05;;;;;;;7.35;1.15;;;;;;;;;;4739159;30;20079;-80
2024/03/16 08:20:35;;;;;;;5.57;1.00;;;;;;;;;;4739244;30;20057;-79
2024/03/16 08:23:05;;;;;;;6.53;1.08;;;;;;;;;;4738184;30;20061;-82
2024/03/16 08:25:36;;;;;;;4.07;1.15;;;;;;;;;;4739495;30;20056;-83
2024/03/16 08:28:07;;;;;;;3.92;1.02;;;;;;;;;;4738875;30;20053;-82
2024/03/16 08:30:39;;;;;;;6.20;0.95;;;;;;;;;;4738062;30;20056;-80
2024/03/16 08:33:10;;;;;;;11.02;1.15;;;;;;;;;;4737703;30;20063;-79
2024/03/16 08:35:40;;;;;;;3.45;1.00;;;;;;;;;;4737863;30;20061;-82
2024/03/16 08:38:12;;;;;;;5.78;1.33;;;;;;;;;;4738511;30;20072;-82
2024/03/16 08:40:43;;;;;;;5.35;1.30;;;;;;;;;;4738357;30;20052;-85
2024/03/16 08:43:13;;;;;;;7.22;1.27;;;;;;;;;;4737559;30;20433;-82
2024/03/16 08:45:43;;;;;;;11.10;1.00;;;;;;;;;;4738034;30;20500;-80
2024/03/16 08:48:14;;;;;;;9.57;1.17;;;;;;;;;;4738921;30;20060;-81
2024/03/16 08:50:44;;;;;;;4.85;1.40;;;;;;;;;;4738374;30;20053;-83
2024/03/16 08:53:15;;;;;;;6.20;1.30;;;;;;;;;;4738641;30;20071;-79
2024/03/16 08:55:45;;;;;;;6.28;1.40;;;;;;;;;;4739302;30;20454;-83
2024/03/16 08:58:15;;;;;;;10.07;1.50;;;;;;;;;;4738523;30;20056;-82
2024/03/16 09:00:45;;;;;;;5.00;1.40;;;;;;;;;;4737411;30;20437;-80
2024/03/16 09:03:16;;;;;;;4.70;1.23;;;;;;;;;;4737131;30;20477;-80
2024/03/16 09:05:46;;;;;;;4.00;1.10;;;;;;;;;;4736781;30;20060;-81
2024/03/16 09:08:16;;;;;;;4.88;1.25;;;;;;;;;;4736371;30;20075;-81
2024/03/16 09:10:49;;;;;;;11.80;1.38;;;;;;;;;;4737745;30;20068;-80
2024/03/16 09:13:19;;;;;;;6.47;1.23;;;;;;;;;;4737629;30;20056;-82
2024/03/16 09:15:51;;;;;;;5.97;1.30;;;;;;;;;;4736803;30;20068;-80
2024/03/16 09:18:21;;;;;;;17.17;1.90;;;;;;;;;;4736360;30;20429;-81
2024/03/16 09:20:51;;;;;;;8.07;1.45;;;;;;;;;;4736397;30;20056;-81
2024/03/16 09:23:23;;;;;;;;;;;;;;;;;;4737462;30;20060;-81
2024/03/16 09:25:55;;;;;;;;;;;;;;;;;;4736717;30;19927;-79
2024/03/16 09:28:26;;;;;;;7.70;1.15;;;;;;;;;;4736847;30;19949;-81
2024/03/16 09:30:56;;;;;;;2.90;0.95;;;;;;;;;;4735813;30;20478;-81
2024/03/16 09:33:27;;;;;;;4.70;1.08;;;;;;;;;;4736042;30;20049;-80
2024/03/16 09:35:58;;;;;;;6.40;1.38;;;;;;;;;;4735373;30;20056;-81
2024/03/16 09:38:27;;;;;;;10.70;1.10;;;;;;;;;;4736401;30;20057;-82
2024/03/16 09:40:58;;;;;;;6.53;1.10;;;;;;;;;;4736678;30;20056;-80
2024/03/16 09:43:33;;;;;;;5.68;1.10;;;;;;;;;;4736612;30;20048;-80
2024/03/16 09:46:04;;;;;;;5.53;1.60;;;;;;;;;;4721295;30;20079;-85
2024/03/16 09:48:33;;;;;;;7.18;1.67;;;;;;;;;;4725991;30;20061;-82
2024/03/16 09:51:01;;;;;;;4.97;1.33;;;;;;;;;;4725583;30;20125;-81
2024/03/16 09:53:31;;;;;;;3.45;1.65;;;;;;;;;;4725325;30;20060;-81
2024/03/16 09:56:04;;;;;;;6.28;1.80;;;;;;;;;;4727856;30;20064;-79
2024/03/16 09:58:33;;;;;;;5.47;1.65;;;;;;;;;;4745533;30;20052;-80
2024/03/16 10:01:03;;;;;;;6.47;1.83;;;;;;;;;;4729654;30;20061;-80
2024/03/16 10:03:32;;;;;;;12.45;2.00;;;;;;;;;;4729664;30;20083;-80
2024/03/16 10:06:08;;;;;;;8.13;1.98;;;;;;;;;;4724338;30;20064;-81
2024/03/16 10:08:37;;;;;;;7.35;1.48;;;;;;;;;;4720438;30;20523;-82
2024/03/16 10:11:15;;;;;;;5.82;1.85;;;;;;;;;;4720241;30;20061;-83
2024/03/16 10:13:53;;;;;;;5.38;1.65;;;;;;;;;;4721988;30;20064;-80
2024/03/16 10:16:21;;;;;;;7.97;1.52;;;;;;;;;;4720611;30;20063;-81
2024/03/16 10:18:52;;;;;;;3.53;1.00;;;;;;;;;;4720483;30;20040;-81
2024/03/16 10:21:21;;;;;;;4.57;1.50;;;;;;;;;;4719908;30;20524;-81
2024/03/16 10:23:49;;;;;;;6.38;1.20;;;;;;;;;;4719495;30;20061;-81
2024/03/16 10:26:17;;;;;;;5.97;1.05;;;;;;;;;;4719576;30;20056;-81
2024/03/16 10:28:50;;;;;;;6.07;1.17;;;;;;;;;;4719997;30;20057;-82
2024/03/16 10:31:22;;;;;;;6.28;1.10;;;;;;;;;;4720255;30;20051;-82
2024/03/16 10:33:51;;;;;;;6.20;1.40;;;;;;;;;;4719591;30;20071;-82
2024/03/16 10:36:19;;;;;;;8.65;1.60;;;;;;;;;;4719229;30;20060;-84
2024/03/16 10:38:50;;;;;;;8.80;1.50;;;;;;;;;;4719953;30;20053;-83
2024/03/16 10:41:22;;;;;;;6.05;1.30;;;;;;;;;;4720268;30;20048;-81
2024/03/16 10:43:52;;;;;;;7.13;1.17;;;;;;;;;;4719679;30;20045;-81
2024/03/16 10:46:20;;;;;;;7.00;1.15;;;;;;;;;;4719741;30;20063;-82
2024/03/16 10:48:50;;;;;;;7.78;0.95;;;;;;;;;;4720414;30;20057;-82
2024/03/16 10:51:19;;;;;;;5.15;1.42;;;;;;;;;;4719823;30;20052;-84
2024/03/16 10:53:47;;;;;;;7.72;1.42;;;;;;;;;;4720470;30;20053;-82
2024/03/16 10:56:17;;;;;;;4.80;1.25;;;;;;;;;;4719634;30;20053;-81
2024/03/16 10:58:45;;;;;;;8.25;1.23;;;;;;;;;;4720027;30;20045;-81
2024/03/16 11:01:18;;;;;;;11.52;2.03;;;;;;;;;;4718853;30;20071;-82
2024/03/16 11:03:55;;;;;;;6.25;0.90;;;;;;;;;;4719539;30;20532;-87
2024/03/16 11:06:23;;;;;;;6.47;2.13;;;;;;;;;;4719858;30;20409;-82
2024/03/16 11:08:52;;;;;;;3.55;1.27;;;;;;;;;;4720073;30;20152;-84
2024/03/16 11:11:27;;;;;;;4.72;2.20;;;;;;;;;;4719962;30;20486;-84
2024/03/16 11:13:56;;;;;;;8.43;2.47;;;;;;;;;;4720287;30;20407;-81
2024/03/16 11:16:32;;;;;;;6.07;1.98;;;;;;;;;;4705307;30;20064;-82
2024/03/16 11:19:07;;;;;;;7.05;2.20;;;;;;;;;;4720144;30;20052;-82
2024/03/16 11:21:38;;;;;;;12.40;2.33;;;;;;;;;;4719584;30;20052;-82
2024/03/16 11:24:16;;;;;;;7.63;3.55;;;;;;;;;;4719520;30;20060;-80
2024/03/16 11:26:45;;;;;;;7.45;3.42;;;;;;;;;;4719517;30;20053;-81
2024/03/16 11:29:27;;;;;;;10.10;3.95;;;;;;;;;;4719015;30;20493;-85
2024/03/16 11:31:57;;;;;;;6.25;3.05;;;;;;;;;;4719337;30;20045;-82
2024/03/16 11:34:25;;;;;;;9.00;3.28;;;;;;;;;;4719711;30;20522;-82
2024/03/16 11:36:55;;;;;;;5.97;2.97;;;;;;;;;;4719100;30;20053;-80
2024/03/16 11:39:25;;;;;;;5.97;3.45;;;;;;;;;;4719562;30;20052;-85
2024/03/16 11:42:16;;;;;;;12.73;3.75;;;;;;;;;;4719621;30;20493;-81
2024/03/16 11:44:47;;;;;;;8.80;4.10;;;;;;;;;;4719172;30;20076;-81
2024/03/16 11:47:17;;;;;;;9.15;3.80;;;;;;;;;;4722762;30;20053;-86
2024/03/16 11:49:45;;;;;;;10.77;4.65;;;;;;;;;;4722982;30;20511;-83
2024/03/16 11:52:16;;;;;;;10.45;4.32;;;;;;;;;;4722734;30;20063;-83
2024/03/16 11:54:48;;;;;;;8.20;4.88;;;;;;;;;;4724582;30;20402;-84
2024/03/16 11:57:16;;;;;;;12.15;5.40;;;;;;;;;;4724191;30;20056;-81
2024/03/16 11:59:45;;;;;;;13.60;4.90;;;;;;;;;;4723704;30;20040;-82
2024/03/16 12:02:14;;;;;;;12.75;5.10;;;;;;;;;;4722718;30;20059;-81
2024/03/16 12:04:42;;;;;;;15.55;4.90;;;;;;;;;;4722410;30;20056;-82
2024/03/16 12:07:11;;;;;;;9.63;4.50;;;;;;;;;;4722811;30;20503;-82
2024/03/16 12:09:41;;;;;;;14.13;4.97;;;;;;;;;;4723367;30;20420;-81
2024/03/16 12:12:10;;;;;;;9.45;4.22;;;;;;;;;;4739989;30;20059;-81
2024/03/16 12:14:39;;;;;;;9.15;4.57;;;;;;;;;;4739925;30;20052;-82
2024/03/16 12:17:09;;;;;;;9.30;4.72;;;;;;;;;;4740122;30;20051;-85
2024/03/16 12:19:38;;;;;;;8.63;4.35;;;;;;;;;;4739858;30;20053;-82
2024/03/16 12:22:15;;;;;;;8.65;4.30;;;;;;;;;;4739659;30;20055;-82
2024/03/16 12:24:43;;;;;;;13.25;3.78;;;;;;;;;;4739675;30;20059;-82
2024/03/16 12:27:12;;;;;;;10.85;3.80;;;;;;;;;;4739004;30;20056;-82
2024/03/16 12:29:43;;;;;;;9.25;3.65;;;;;;;;;;4733169;30;20064;-82
2024/03/16 12:32:12;;;;;;;5.85;3.00;;;;;;;;;;4712404;30;20051;-81
2024/03/16 12:34:41;;;;;;;8.07;3.05;;;;;;;;;;4720537;30;20036;-84
2024/03/16 12:37:09;;;;;;;6.88;3.28;;;;;;;;;;4720580;30;20072;-82
2024/03/16 12:39:37;;;;;;;8.40;2.90;;;;;;;;;;4718104;30;20056;-85
2024/03/16 12:42:06;;;;;;;4.97;2.50;;;;;;;;;;4715496;30;20056;-82
2024/03/16 12:44:35;;;;;;;6.75;2.83;;;;;;;;;;4720761;30;20385;-82
2024/03/16 12:47:03;;;;;;;7.57;3.17;;;;;;;;;;4720789;30;20052;-82
2024/03/16 12:49:31;;;;;;;10.52;3.33;;;;;;;;;;4720867;30;20420;-82
2024/03/16 12:52:00;;;;;;;7.50;3.70;;;;;;;;;;4720462;30;20052;-83
2024/03/16 12:54:28;;;;;;;8.90;4.60;;;;;;;;;;4720771;30;20520;-84
2024/03/16 12:56:56;;;;;;;8.38;3.90;;;;;;;;;;4720048;30;20064;-82
2024/03/16 12:59:24;;;;;;;5.72;3.13;;;;;;;;;;4720281;30;20064;-82
2024/03/16 13:01:52;;;;;;;10.52;3.72;;;;;;;;;;4720195;30;20539;-81
2024/03/16 13:04:22;;;;;;;8.50;2.78;;;;;;;;;;4720892;30;20060;-81
2024/03/16 13:06:50;;;;;;;12.57;3.08;;;;;;;;;;4720472;30;20125;-83
2024/03/16 13:09:19;;;;;;;8.65;3.30;;;;;;;;;;4720621;30;20056;-83
2024/03/16 13:11:47;;;;;;;9.40;2.53;;;;;;;;;;4720282;30;20070;-82
2024/03/16 13:14:16;;;;;;;6.55;2.58;;;;;;;;;;4720387;30;20075;-82
2024/03/16 13:16:44;;;;;;;7.20;2.58;;;;;;;;;;4720014;30;20049;-82
2024/03/16 13:19:13;;;;;;;9.18;2.72;;;;;;;;;;4720367;30;20057;-83
2024/03/16 13:21:44;;;;;;;8.98;3.28;;;;;;;;;;4705476;30;20505;-83
2024/03/16 13:24:13;;;;;;;7.22;2.58;;;;;;;;;;4719719;30;20065;-84
2024/03/16 13:26:41;;;;;;;7.63;2.53;;;;;;;;;;4720254;30;20056;-82
2024/03/16 13:29:09;;;;;;;11.75;2.33;;;;;;;;;;4720258;30;20041;-83
2024/03/16 13:31:37;;;;;;;5.78;2.50;;;;;;;;;;4720296;30;20049;-83
2024/03/16 13:34:08;;;;;;;6.70;2.30;;;;;;;;;;4720380;30;20057;-82
2024/03/16 13:36:36;;;;;;;5.18;2.00;;;;;;;;;;4720453;30;20053;-83
2024/03/16 13:39:07;;;;;;;9.70;1.90;;;;;;;;;;4720615;30;20048;-85
2024/03/16 13:41:36;;;;;;;3.65;1.67;;;;;;;;;;4721015;30;20048;-86
2024/03/16 13:44:05;;;;;;;3.97;1.80;;;;;;;;;;4719897;30;20382;-84
2024/03/16 13:46:33;;;;;;;2.97;1.00;;;;;;;;;;4718513;30;20056;-84
2024/03/16 13:49:05;;;;;;;2.97;0.80;;;;;;;;;;4719538;30;20049;-84
2024/03/16 13:51:34;;;;;;;3.25;1.02;;;;;;;;;;4720069;30;20394;-83
2024/03/16 13:54:03;;;;;;;3.22;0.90;;;;;;;;;;4719407;30;20520;-84
2024/03/16 13:56:34;;;;;;;3.13;0.90;;;;;;;;;;4719677;30;20053;-86
2024/03/16 13:59:02;;;;;;;2.88;0.90;;;;;;;;;;4705030;30;20061;-84
2024/03/16 14:01:32;;;;;;;2.92;0.73;;;;;;;;;;4734116;30;20057;-85
2024/03/16 14:04:04;;;;;;;3.22;1.23;;;;;;;;;;4719033;30;20060;-83
2024/03/16 14:06:33;;;;;;;11.50;5.10;;;;;;;;;;4719471;30;20045;-85
2024/03/16 14:09:06;;;;;;;4.38;1.30;;;;;;;;;;4718917;30;20053;-86
2024/03/16 14:11:35;;;;;;;3.78;1.10;;;;;;;;;;4719682;30;20171;-86
2024/03/16 14:14:03;;;;;;;4.18;0.80;;;;;;;;;;4719323;30;20083;-85
2024/03/16 14:16:31;;;;;;;2.42;0.85;;;;;;;;;;4716130;30;20056;-88
2024/03/16 14:18:59;;;;;;;2.63;0.80;;;;;;;;;;4701742;30;20516;-87
2024/03/16 14:21:28;;;;;;;4.38;1.02;;;;;;;;;;4716334;30;20060;-86
2024/03/16 14:23:57;;;;;;;2.38;1.05;;;;;;;;;;4701959;30;20057;-85
2024/03/16 14:26:25;;;;;;;2.67;1.00;;;;;;;;;;4702236;30;20057;-89
2024/03/16 14:28:54;;;;;;;1.85;0.60;;;;;;;;;;4701979;30;20068;-86
2024/03/16 14:31:22;;;;;;;3.00;0.90;;;;;;;;;;4702022;30;20183;-84
2024/03/16 14:33:52;;;;;;;2.65;0.95;;;;;;;;;;4701636;30;20060;-85
2024/03/16 14:36:20;;;;;;;4.25;0.60;;;;;;;;;;4701766;30;20067;-85
2024/03/16 14:38:48;;;;;;;1.98;0.63;;;;;;;;;;4701417;30;20510;-84
2024/03/16 14:41:16;;;;;;;2.33;0.70;;;;;;;;;;4716008;30;20474;-86
2024/03/16 14:43:44;;;;;;;2.33;1.10;;;;;;;;;;4716031;30;20540;-85
2024/03/16 14:46:13;;;;;;;1.98;0.70;;;;;;;;;;4711483;30;20060;-85
2024/03/16 14:48:41;;;;;;;2.55;0.80;;;;;;;;;;4716039;30;20056;-88
2024/03/16 14:51:09;;;;;;;3.15;0.98;;;;;;;;;;4715948;30;20088;-87
2024/03/16 14:53:37;;;;;;;4.93;1.08;;;;;;;;;;4701358;30;20080;-86
2024/03/16 14:56:05;;;;;;;3.17;0.70;;;;;;;;;;4715379;30;20064;-86
2024/03/16 14:58:34;;;;;;;2.42;0.70;;;;;;;;;;4715671;30;20572;-84
2024/03/16 15:01:02;;;;;;;3.33;1.00;;;;;;;;;;4701305;30;20079;-85
2024/03/16 15:03:31;;;;;;;3.45;0.70;;;;;;;;;;4715556;30;20063;-83